Time;durP1;ratioP1;P1;durP2;ratioP2;P2;SDS_P1;SDS_P2;PMS_P1;PMS_P2;Temp;Humidity;BMP_temperature;BMP_pressure;BME280_temperature;BME280_humidity;BME280_pressure;Samples;Min_cycle;Max_cycle;Signal;HPM_P1;HPM_P2
2023/03/19 00:01:52;;;;;;;;;;;;;;;9.91;70.76;99857.72;5030763;27;20054;-60
2023/03/19 00:04:20;;;;;;;6.03;3.25;;;;;;;9.78;70.75;99849.50;5031311;28;19920;-61
2023/03/19 00:06:47;;;;;;;6.05;3.85;;;;;;;9.74;70.41;99850.16;5031767;28;20495;-60
2023/03/19 00:09:18;;;;;;;6.18;3.53;;;;;;;9.70;71.49;99853.88;5029816;28;20064;-60
2023/03/19 00:11:49;;;;;;;5.35;3.20;;;;;;;9.67;71.75;99858.13;5027245;27;20053;-62
2023/03/19 00:14:17;;;;;;;6.65;4.00;;;;;;;9.70;71.41;99863.06;5029891;27;20060;-62
2023/03/19 00:16:48;;;;;;;5.88;3.90;;;;;;;9.75;72.53;99865.69;5031115;28;20060;-62
2023/03/19 00:19:16;;;;;;;4.93;3.42;;;;;;;9.80;71.43;99867.47;5030487;28;20050;-62
2023/03/19 00:21:44;;;;;;;6.55;3.80;;;;;;;9.82;71.47;99858.81;5032754;28;20053;-62
2023/03/19 00:24:11;;;;;;;8.25;6.57;;;;;;;9.81;72.12;99868.31;5029168;27;20068;-62
2023/03/19 00:26:41;;;;;;;5.72;3.80;;;;;;;9.80;71.53;99878.63;5028277;28;20057;-62
2023/03/19 00:29:11;;;;;;;5.35;3.95;;;;;;;9.84;72.74;99871.25;5027471;28;20057;-62
2023/03/19 00:31:41;;;;;;;5.55;3.45;;;;;;;9.86;72.55;99866.19;5027134;28;20046;-62
2023/03/19 00:34:10;;;;;;;6.75;4.18;;;;;;;9.84;72.68;99870.44;5028476;28;20399;-63
2023/03/19 00:36:38;;;;;;;5.93;3.70;;;;;;;9.85;72.25;99864.56;5020918;28;20057;-62
2023/03/19 00:39:07;;;;;;;6.43;3.65;;;;;;;9.78;71.85;99863.41;5027916;28;20049;-62
2023/03/19 00:41:35;;;;;;;6.05;4.07;;;;;;;9.68;72.90;99865.34;5020451;28;20041;-62
2023/03/19 00:44:05;;;;;;;7.15;4.10;;;;;;;9.66;73.09;99870.41;5030523;28;20423;-62
2023/03/19 00:46:34;;;;;;;;;;;;;;;9.66;72.72;99864.00;5037616;27;20416;-62
2023/03/19 00:49:02;;;;;;;6.32;3.72;;;;;;;9.65;71.86;99867.94;5027668;28;19928;-63
2023/03/19 00:51:30;;;;;;;5.13;3.50;;;;;;;9.58;71.30;99865.66;5026664;28;20073;-62
2023/03/19 00:54:01;;;;;;;5.00;3.72;;;;;;;9.51;72.59;99860.56;5027747;28;20053;-62
2023/03/19 00:56:29;;;;;;;4.00;2.97;;;;;;;9.42;71.88;99868.03;5028468;28;20056;-62
2023/03/19 00:58:56;;;;;;;5.55;3.55;;;;;;;9.39;71.95;99863.13;5026776;28;20057;-62
2023/03/19 01:01:27;;;;;;;5.65;3.42;;;;;;;9.37;72.58;99870.16;5025044;28;20488;-62
2023/03/19 01:03:57;;;;;;;6.47;3.63;;;;;;;9.34;73.03;99864.09;5029521;28;20053;-62
2023/03/19 01:06:25;;;;;;;;;;;;;;;9.31;71.76;99870.28;5027379;28;20057;-62
2023/03/19 01:08:52;;;;;;;5.20;3.55;;;;;;;9.33;72.07;99872.75;5026308;27;19928;-65
2023/03/19 01:11:20;;;;;;;5.53;3.60;;;;;;;9.35;72.79;99874.06;5026046;27;20041;-62
2023/03/19 01:13:48;;;;;;;6.00;3.40;;;;;;;9.38;72.26;99872.59;5010538;28;20416;-62
2023/03/19 01:16:16;;;;;;;5.97;3.05;;;;;;;9.41;73.35;99883.09;5010399;28;20065;-62
2023/03/19 01:18:47;;;;;;;5.78;3.05;;;;;;;9.43;73.33;99879.97;5010690;28;20476;-62
2023/03/19 01:21:16;;;;;;;5.72;3.38;;;;;;;9.49;73.00;99876.75;5010287;28;20057;-62
2023/03/19 01:23:52;;;;;;;6.43;3.28;;;;;;;9.49;72.21;99875.91;5019248;28;20060;-61
2023/03/19 01:26:20;;;;;;;4.85;3.10;;;;;;;9.46;71.93;99868.22;5030598;28;20054;-62
2023/03/19 01:28:48;;;;;;;6.95;3.35;;;;;;;9.45;71.28;99861.84;5021765;28;20065;-62
2023/03/19 01:31:16;;;;;;;5.22;3.00;;;;;;;9.45;71.86;99861.00;5010179;28;20504;-61
2023/03/19 01:33:44;;;;;;;4.55;3.20;;;;;;;9.50;71.85;99872.00;5010601;28;20050;-61
2023/03/19 01:36:12;;;;;;;4.32;3.20;;;;;;;9.54;71.70;99868.25;5010598;28;20061;-61
2023/03/19 01:38:41;;;;;;;5.80;3.28;;;;;;;9.59;72.26;99867.28;5017185;28;20049;-61
2023/03/19 01:41:09;;;;;;;5.30;2.90;;;;;;;9.59;72.15;99861.72;5030227;28;20491;-62
2023/03/19 01:43:37;;;;;;;5.93;3.45;;;;;;;9.62;70.80;99866.66;5029969;28;20054;-61
2023/03/19 01:46:09;;;;;;;4.20;2.83;;;;;;;9.67;70.96;99851.75;5029277;28;20049;-62
2023/03/19 01:48:45;;;;;;;6.65;3.38;;;;;;;9.68;70.71;99854.22;5029967;28;20049;-68
2023/03/19 01:51:17;;;;;;;4.28;2.95;;;;;;;9.69;72.06;99847.50;5030314;28;20488;-61
2023/03/19 01:53:52;;;;;;;8.27;3.90;;;;;;;9.72;70.89;99854.38;5028653;28;20049;-61
2023/03/19 01:56:22;;;;;;;4.32;3.10;;;;;;;9.70;71.58;99859.44;5029714;28;20057;-61
2023/03/19 01:58:56;;;;;;;5.03;3.05;;;;;;;9.77;70.64;99854.25;5029831;28;20057;-62
2023/03/19 02:01:24;;;;;;;5.40;3.03;;;;;;;9.72;70.90;99860.78;5029684;28;20400;-62
2023/03/19 02:03:52;;;;;;;4.47;2.70;;;;;;;9.77;71.37;99856.22;5030407;28;20049;-61
2023/03/19 02:06:21;;;;;;;5.95;3.00;;;;;;;9.71;70.94;99853.56;5030579;28;20062;-62
2023/03/19 02:08:52;;;;;;;7.15;2.70;;;;;;;9.74;70.00;99852.94;5028953;28;20060;-62
2023/03/19 02:11:26;;;;;;;4.28;2.55;;;;;;;9.70;70.17;99851.94;5029731;28;20480;-62
2023/03/19 02:13:54;;;;;;;4.15;2.55;;;;;;;9.63;70.00;99857.16;5029795;28;20049;-62
2023/03/19 02:16:21;;;;;;;4.75;2.67;;;;;;;9.58;70.71;99857.31;5029723;28;20060;-61
2023/03/19 02:18:49;;;;;;;4.47;2.50;;;;;;;9.51;71.10;99859.72;5029148;28;20058;-62
2023/03/19 02:21:17;;;;;;;4.38;2.45;;;;;;;9.55;70.54;99857.94;5029514;28;20049;-61
2023/03/19 02:23:52;;;;;;;3.17;2.38;;;;;;;9.56;70.97;99862.38;5028382;28;20479;-61
2023/03/19 02:26:23;;;;;;;3.50;2.65;;;;;;;9.51;70.80;99857.78;5029530;28;20058;-61
2023/03/19 02:28:52;;;;;;;6.65;2.90;;;;;;;9.55;70.85;99855.16;5029024;28;20056;-61
2023/03/19 02:31:20;;;;;;;4.97;2.80;;;;;;;9.57;71.34;99854.84;5030330;28;20053;-62
2023/03/19 02:33:58;;;;;;;3.83;2.22;;;;;;;9.67;70.00;99855.34;5030562;28;20058;-62
2023/03/19 02:36:29;;;;;;;4.60;2.50;;;;;;;9.70;70.63;99846.38;5030102;28;20046;-61
2023/03/19 02:38:58;;;;;;;4.00;2.67;;;;;;;9.72;70.05;99849.66;5028154;28;20057;-62
2023/03/19 02:41:29;;;;;;;4.38;2.90;;;;;;;9.74;70.79;99852.94;5029389;28;20046;-62
2023/03/19 02:43:58;;;;;;;4.85;2.75;;;;;;;9.76;70.97;99855.38;5033016;28;20065;-62
2023/03/19 02:46:25;;;;;;;3.25;2.33;;;;;;;9.84;71.10;99849.00;5032602;28;20053;-62
2023/03/19 02:48:53;;;;;;;4.53;3.05;;;;;;;9.82;71.39;99850.47;5033805;28;20060;-61
2023/03/19 02:51:20;;;;;;;5.13;3.13;;;;;;;9.80;71.23;99855.56;5032679;28;20049;-62
2023/03/19 02:53:47;;;;;;;4.25;2.90;;;;;;;9.78;71.33;99852.28;5030699;28;20062;-62
2023/03/19 02:56:14;;;;;;;4.38;2.80;;;;;;;9.81;71.17;99844.09;5031948;28;20053;-62
2023/03/19 02:58:43;;;;;;;6.95;2.97;;;;;;;9.79;70.03;99837.25;5032689;28;20057;-62
2023/03/19 03:01:10;;;;;;;6.72;2.58;;;;;;;9.80;70.66;99838.88;5032729;28;20080;-62
2023/03/19 03:03:38;;;;;;;6.20;2.90;;;;;;;9.75;70.71;99845.41;5032770;28;20400;-61
2023/03/19 03:06:05;;;;;;;6.55;3.45;;;;;;;9.72;71.23;99843.25;5032498;28;20049;-62
2023/03/19 03:08:33;;;;;;;5.55;3.20;;;;;;;9.73;70.80;99851.28;5030723;28;20057;-62
2023/03/19 03:11:00;;;;;;;5.25;3.35;;;;;;;9.72;69.74;99857.16;5033307;28;20057;-62
2023/03/19 03:13:28;;;;;;;3.70;3.30;;;;;;;9.62;70.22;99849.16;5032588;28;20369;-61
2023/03/19 03:15:57;;;;;;;4.57;3.05;;;;;;;9.61;69.98;99853.88;5032647;28;20054;-61
2023/03/19 03:18:25;;;;;;;5.13;3.00;;;;;;;9.63;71.24;99851.59;5032127;28;20053;-62
2023/03/19 03:20:53;;;;;;;5.30;2.78;;;;;;;9.62;70.54;99857.50;5032687;28;20058;-61
2023/03/19 03:23:21;;;;;;;5.47;3.15;;;;;;;9.55;70.12;99846.81;5031200;28;20052;-62
2023/03/19 03:25:50;;;;;;;6.82;3.28;;;;;;;9.50;69.74;99846.97;5031368;28;20511;-61
2023/03/19 03:28:18;;;;;;;4.35;2.90;;;;;;;9.47;70.81;99848.44;5032058;28;20053;-62
2023/03/19 03:30:46;;;;;;;5.72;3.10;;;;;;;9.50;70.21;99852.53;5032496;28;20068;-62
2023/03/19 03:33:16;;;;;;;4.32;3.03;;;;;;;9.53;69.76;99854.66;5032898;28;20050;-61
2023/03/19 03:35:43;;;;;;;3.20;2.58;;;;;;;9.54;70.71;99847.97;5032325;28;20064;-61
2023/03/19 03:38:11;;;;;;;3.92;2.67;;;;;;;9.56;70.08;99854.03;5031433;28;20049;-61
2023/03/19 03:40:38;;;;;;;4.35;2.80;;;;;;;9.61;70.66;99851.09;5031721;28;20053;-62
2023/03/19 03:43:05;;;;;;;5.15;2.80;;;;;;;9.67;70.73;99847.00;5032076;28;20060;-60
2023/03/19 03:45:33;;;;;;;3.50;2.97;;;;;;;9.72;70.79;99852.44;5032132;28;20058;-60
2023/03/19 03:48:00;;;;;;;3.83;2.90;;;;;;;9.78;70.59;99847.53;5030463;28;20061;-60
2023/03/19 03:50:28;;;;;;;5.38;3.22;;;;;;;9.81;69.89;99848.84;5032111;28;20056;-60
2023/03/19 03:52:56;;;;;;;5.28;2.95;;;;;;;9.84;70.49;99850.97;5030210;28;20498;-60
2023/03/19 03:55:23;;;;;;;3.90;2.90;;;;;;;9.90;69.82;99849.69;4993200;28;20070;-60
2023/03/19 03:57:50;;;;;;;3.95;2.70;;;;;;;9.94;69.84;99848.69;4992658;28;20073;-60
2023/03/19 04:00:18;;;;;;;5.68;3.05;;;;;;;9.98;69.34;99856.41;4992689;28;20065;-60
2023/03/19 04:02:46;;;;;;;5.03;3.20;;;;;;;9.99;69.98;99853.28;4992396;28;20503;-60
2023/03/19 04:05:13;;;;;;;4.53;3.30;;;;;;;10.00;69.98;99854.13;4992612;28;20061;-60
2023/03/19 04:07:41;;;;;;;4.45;3.25;;;;;;;10.04;68.96;99857.88;4991909;28;20097;-60
2023/03/19 04:10:10;;;;;;;5.40;3.78;;;;;;;10.03;69.28;99864.59;4993573;28;20477;-60
2023/03/19 04:12:38;;;;;;;4.55;3.33;;;;;;;10.01;69.11;99850.19;4992391;28;20104;-59
2023/03/19 04:15:07;;;;;;;3.80;3.03;;;;;;;10.07;69.09;99858.03;4992231;28;20497;-60
2023/03/19 04:17:35;;;;;;;4.63;3.20;;;;;;;10.10;69.47;99856.56;4992113;28;20054;-60
2023/03/19 04:20:03;;;;;;;5.75;3.25;;;;;;;10.12;70.10;99857.88;4992156;28;20481;-60
2023/03/19 04:22:32;;;;;;;5.15;3.05;;;;;;;10.13;69.19;99858.69;4990732;28;20054;-60
2023/03/19 04:25:00;;;;;;;4.30;3.10;;;;;;;10.21;69.50;99860.66;4991906;28;20090;-60
2023/03/19 04:27:28;;;;;;;3.60;2.90;;;;;;;10.24;68.87;99860.00;4991830;28;20050;-60
2023/03/19 04:29:55;;;;;;;4.75;2.90;;;;;;;10.28;68.74;99861.00;4991979;28;20051;-60
2023/03/19 04:32:22;;;;;;;5.72;3.45;;;;;;;10.30;68.16;99855.94;4991859;28;20489;-60
2023/03/19 04:34:49;;;;;;;4.35;3.08;;;;;;;10.30;68.72;99858.72;4991926;28;20058;-60
2023/03/19 04:37:17;;;;;;;5.03;3.55;;;;;;;10.35;68.61;99866.94;4991235;28;20062;-60
2023/03/19 04:39:44;;;;;;;3.83;3.00;;;;;;;10.38;69.32;99859.88;4989334;28;20432;-60
2023/03/19 04:42:14;;;;;;;5.53;3.60;;;;;;;10.44;68.85;99872.50;4991715;28;20061;-60
2023/03/19 04:44:41;;;;;;;5.05;3.47;;;;;;;10.45;69.58;99862.97;4992087;28;20065;-60
2023/03/19 04:47:09;;;;;;;4.03;3.10;;;;;;;10.47;68.75;99860.69;4991640;28;20055;-60
2023/03/19 04:49:37;;;;;;;4.78;3.60;;;;;;;10.49;69.19;99872.31;4992046;28;20062;-59
2023/03/19 04:52:04;;;;;;;5.40;3.13;;;;;;;10.52;68.60;99865.25;4991872;28;20063;-60
2023/03/19 04:54:32;;;;;;;4.70;3.80;;;;;;;10.51;67.65;99875.59;5016337;28;20069;-60
2023/03/19 04:57:00;;;;;;;4.32;3.20;;;;;;;10.51;68.29;99883.13;5030968;28;20049;-60
2023/03/19 04:59:29;;;;;;;3.92;3.35;;;;;;;10.50;68.58;99881.50;5030929;28;20051;-60
2023/03/19 05:01:56;;;;;;;4.03;3.30;;;;;;;10.51;67.95;99891.47;5029888;28;20419;-60
2023/03/19 05:04:23;;;;;;;4.75;3.63;;;;;;;10.54;67.76;99894.44;5030283;28;20057;-60
2023/03/19 05:06:51;;;;;;;4.03;3.35;;;;;;;10.58;67.76;99894.56;5031082;28;20053;-60
2023/03/19 05:09:18;;;;;;;6.53;3.88;;;;;;;10.57;68.03;99896.56;5029250;27;20061;-60
2023/03/19 05:11:45;;;;;;;4.57;3.63;;;;;;;10.58;68.73;99905.72;5030718;28;20411;-60
2023/03/19 05:14:13;;;;;;;5.15;3.72;;;;;;;10.61;68.76;99904.25;5031018;28;20053;-60
2023/03/19 05:16:41;;;;;;;6.88;3.90;;;;;;;10.67;68.02;99905.75;5030781;28;20423;-60
2023/03/19 05:19:09;;;;;;;6.00;3.90;;;;;;;10.72;68.39;99909.16;5030974;28;20403;-60
2023/03/19 05:21:37;;;;;;;5.32;3.67;;;;;;;10.79;68.92;99914.22;5030410;27;20061;-60
2023/03/19 05:24:05;;;;;;;5.97;3.30;;;;;;;10.91;68.36;99906.00;5029091;28;20049;-60
2023/03/19 05:26:32;;;;;;;5.45;4.20;;;;;;;10.94;68.77;99918.47;5030024;28;20419;-60
2023/03/19 05:29:00;;;;;;;4.80;2.70;;;;;;;11.05;68.22;99902.22;5030576;28;20054;-60
2023/03/19 05:31:27;;;;;;;3.88;2.47;;;;;;;11.21;68.12;99903.31;5030601;28;20053;-60
2023/03/19 05:33:56;;;;;;;3.83;2.15;;;;;;;11.37;67.92;99911.97;5030408;28;20053;-60
2023/03/19 05:36:23;;;;;;;4.03;1.92;;;;;;;11.51;66.96;99908.97;5030454;28;20067;-59
2023/03/19 05:38:50;;;;;;;3.53;1.92;;;;;;;11.61;66.92;99911.34;5028928;27;20053;-60
2023/03/19 05:41:17;;;;;;;4.80;2.17;;;;;;;11.64;66.73;99910.69;5029741;28;20411;-60
2023/03/19 05:43:45;;;;;;;4.50;2.10;;;;;;;11.73;66.52;99902.28;5030245;28;20057;-60
2023/03/19 05:46:12;;;;;;;4.10;2.25;;;;;;;11.72;66.46;99918.22;5030180;28;20488;-60
2023/03/19 05:48:39;;;;;;;3.83;1.90;;;;;;;11.78;66.24;99916.88;5029668;28;20518;-60
2023/03/19 05:51:08;;;;;;;3.83;1.90;;;;;;;11.82;65.69;99927.34;5030119;28;20064;-60
2023/03/19 05:53:35;;;;;;;3.88;2.15;;;;;;;11.79;65.58;99921.28;5028329;28;20050;-60
2023/03/19 05:56:03;;;;;;;3.88;2.00;;;;;;;12.02;65.37;99920.22;5012698;28;20054;-60
2023/03/19 05:58:30;;;;;;;3.65;1.88;;;;;;;12.12;65.05;99917.84;5010147;28;20053;-60
2023/03/19 06:00:57;;;;;;;3.25;1.88;;;;;;;12.24;64.97;99913.50;5029704;28;20060;-60
2023/03/19 06:03:25;;;;;;;5.43;1.90;;;;;;;12.27;63.95;99921.22;5030753;28;20049;-60
2023/03/19 06:05:53;;;;;;;4.05;1.90;;;;;;;12.34;64.08;99922.28;5030858;28;20055;-60
2023/03/19 06:08:22;;;;;;;4.38;1.60;;;;;;;12.47;64.08;99922.34;5029582;28;20049;-60
2023/03/19 06:10:50;;;;;;;4.40;2.03;;;;;;;12.51;63.42;99926.91;5029865;28;20064;-60
2023/03/19 06:13:17;;;;;;;3.40;2.05;;;;;;;12.55;63.10;99927.88;5029564;28;20529;-60
2023/03/19 06:15:44;;;;;;;3.47;1.88;;;;;;;12.72;62.47;99918.53;5029901;28;20057;-60
2023/03/19 06:18:11;;;;;;;5.75;1.88;;;;;;;12.79;62.82;99912.41;5029870;28;20064;-60
2023/03/19 06:20:39;;;;;;;4.25;2.00;;;;;;;12.88;61.86;99921.50;5029729;28;20419;-60
2023/03/19 06:23:06;;;;;;;4.15;2.10;;;;;;;12.90;61.36;99927.56;5028055;28;20052;-60
2023/03/19 06:25:35;;;;;;;2.65;1.67;;;;;;;13.05;61.89;99930.91;5027798;28;20687;-60
2023/03/19 06:28:02;;;;;;;2.08;1.55;;;;;;;13.07;60.73;99936.97;5027116;28;20076;-60
2023/03/19 06:30:30;;;;;;;3.00;1.80;;;;;;;13.18;60.43;99935.34;5029533;28;20061;-60
2023/03/19 06:32:57;;;;;;;2.88;1.50;;;;;;;13.26;61.08;99942.84;5029526;28;20499;-60
2023/03/19 06:35:25;;;;;;;3.33;2.03;;;;;;;13.36;60.40;99936.84;5029458;28;20385;-60
2023/03/19 06:37:53;;;;;;;2.95;2.00;;;;;;;13.57;60.24;99938.75;5028589;28;20053;-60
2023/03/19 06:40:20;;;;;;;2.88;1.77;;;;;;;13.63;59.76;99933.72;5028709;28;20080;-59
2023/03/19 06:42:48;;;;;;;4.20;1.75;;;;;;;13.88;58.38;99942.94;5029323;28;20399;-60
2023/03/19 06:45:18;;;;;;;2.35;1.50;;;;;;;14.01;57.63;99953.00;5029146;28;20056;-60
2023/03/19 06:47:45;;;;;;;3.10;1.65;;;;;;;14.23;58.45;99953.66;5029428;28;20076;-59
2023/03/19 06:50:13;;;;;;;3.28;1.75;;;;;;;14.23;58.20;99948.06;5029272;28;20105;-60
2023/03/19 06:52:41;;;;;;;3.22;1.90;;;;;;;14.35;57.74;99945.25;5029159;28;20068;-60
2023/03/19 06:55:10;;;;;;;4.10;2.40;;;;;;;14.27;58.13;99951.81;5027468;28;20045;-60
2023/03/19 06:57:37;;;;;;;2.70;1.60;;;;;;;14.21;60.61;99960.47;5027610;28;20059;-60
2023/03/19 07:00:09;;;;;;;3.38;1.90;;;;;;;14.25;60.84;99963.34;5032701;28;20057;-60
2023/03/19 07:02:36;;;;;;;4.20;1.90;;;;;;;14.43;60.42;99966.72;5029068;28;20049;-60
2023/03/19 07:05:04;;;;;;;3.58;1.85;;;;;;;14.58;59.78;99977.22;5028574;28;20076;-60
2023/03/19 07:07:31;;;;;;;3.08;1.67;;;;;;;14.36;61.13;99972.09;5028604;28;20499;-60
2023/03/19 07:09:58;;;;;;;3.28;1.60;;;;;;;14.26;59.99;99976.22;5027084;28;20053;-60
2023/03/19 07:12:27;;;;;;;2.53;1.75;;;;;;;14.08;61.23;99970.00;5029367;28;20046;-60
2023/03/19 07:14:55;;;;;;;3.47;1.88;;;;;;;14.08;59.99;99981.22;5028706;28;20412;-60
2023/03/19 07:17:25;;;;;;;3.38;1.88;;;;;;;14.10;59.70;99981.69;5028689;28;20057;-60
2023/03/19 07:19:52;;;;;;;2.67;1.50;;;;;;;14.11;59.55;99974.09;5029153;28;20065;-60
2023/03/19 07:22:20;;;;;;;3.40;2.10;;;;;;;14.23;59.52;99974.09;5028736;28;20053;-60
2023/03/19 07:24:48;;;;;;;3.17;1.85;;;;;;;14.46;60.21;99982.81;5027310;28;20053;-60
2023/03/19 07:27:15;;;;;;;2.60;1.70;;;;;;;14.53;59.31;99983.06;5028389;28;20131;-60
2023/03/19 07:29:42;;;;;;;4.18;1.70;;;;;;;14.75;59.06;99986.53;5031688;28;20059;-60
2023/03/19 07:32:10;;;;;;;3.35;1.50;;;;;;;14.96;58.09;99989.97;5031878;28;20049;-60
2023/03/19 07:34:39;;;;;;;3.75;1.67;;;;;;;15.09;56.53;99982.31;5032524;28;20515;-60
2023/03/19 07:37:06;;;;;;;4.15;1.58;;;;;;;15.05;56.30;99989.81;5032182;28;20064;-60
2023/03/19 07:39:34;;;;;;;2.83;1.58;;;;;;;15.15;55.98;99986.50;5030875;27;20460;-59
2023/03/19 07:42:01;;;;;;;3.60;1.58;;;;;;;15.21;56.95;99987.06;5031984;28;20064;-60
2023/03/19 07:44:28;;;;;;;3.15;1.58;;;;;;;15.29;55.82;99993.72;5032928;28;20408;-60
2023/03/19 07:46:55;;;;;;;3.15;1.58;;;;;;;15.47;55.05;99991.38;5032256;28;20061;-60
2023/03/19 07:49:23;;;;;;;2.67;1.73;;;;;;;15.80;55.13;99989.09;5031345;28;20057;-60
2023/03/19 07:51:52;;;;;;;3.67;2.20;;;;;;;17.08;51.70;99986.03;5031435;27;20050;-60
2023/03/19 07:54:19;;;;;;;3.40;1.80;;;;;;;18.09;49.47;99983.91;5030276;28;20408;-60
2023/03/19 07:56:46;;;;;;;3.40;1.95;;;;;;;19.32;46.54;99977.97;5030842;28;20056;-60
2023/03/19 07:59:13;;;;;;;4.05;2.20;;;;;;;20.13;45.30;99991.31;5031134;28;20077;-60
2023/03/19 08:01:42;;;;;;;3.05;2.28;;;;;;;20.98;41.84;99984.63;5031428;28;20054;-60
2023/03/19 08:04:09;;;;;;;3.00;2.20;;;;;;;20.58;42.12;99992.09;5031466;28;20059;-58
2023/03/19 08:06:37;;;;;;;4.10;2.15;;;;;;;20.13;43.66;99993.31;5031664;28;20076;-58
2023/03/19 08:09:06;;;;;;;2.70;2.08;;;;;;;19.90;43.81;99988.69;5030820;28;20057;-58
2023/03/19 08:11:33;;;;;;;3.33;2.38;;;;;;;19.86;43.37;99999.97;5029338;27;20054;-58
2023/03/19 08:14:01;;;;;;;3.60;2.25;;;;;;;19.35;44.51;99992.13;5032340;28;20054;-58
2023/03/19 08:16:31;;;;;;;3.50;2.38;;;;;;;18.99;44.51;99997.34;5030167;28;20167;-60
2023/03/19 08:18:58;;;;;;;3.83;2.70;;;;;;;18.34;46.29;99994.78;5028796;27;20061;-61
2023/03/19 08:21:26;;;;;;;3.25;2.10;;;;;;;17.92;46.92;100013.41;5031481;28;20068;-60
2023/03/19 08:23:53;;;;;;;4.28;2.40;;;;;;;17.15;49.05;100000.25;5029933;28;20053;-60
2023/03/19 08:26:22;;;;;;;3.97;2.40;;;;;;;17.17;49.65;100000.69;5030059;28;20054;-60
2023/03/19 08:28:49;;;;;;;3.42;2.50;;;;;;;17.01;49.59;100003.59;5031307;28;20060;-60
2023/03/19 08:31:16;;;;;;;3.38;2.72;;;;;;;16.79;49.84;100013.53;5029782;28;20491;-61
2023/03/19 08:33:43;;;;;;;3.33;2.65;;;;;;;16.77;50.61;100022.31;5019273;28;20057;-61
2023/03/19 08:36:13;;;;;;;3.58;2.67;;;;;;;16.67;51.58;100022.09;5023645;28;20480;-61
2023/03/19 08:38:40;;;;;;;;;;;;;;;16.52;51.86;100027.38;5030608;28;20049;-60
2023/03/19 08:41:08;;;;;;;3.60;2.40;;;;;;;16.52;52.04;100030.19;5028424;28;19921;-60
2023/03/19 08:43:37;;;;;;;3.38;2.35;;;;;;;16.40;52.08;100044.38;5032713;27;20060;-60
2023/03/19 08:46:05;;;;;;;3.47;1.80;;;;;;;16.18;52.71;100040.19;5026998;28;20049;-60
2023/03/19 08:48:33;;;;;;;2.67;1.58;;;;;;;15.99;53.09;100043.75;5027615;28;20053;-60
2023/03/19 08:51:02;;;;;;;3.03;1.60;;;;;;;15.68;53.36;100045.28;5025029;28;20065;-60
2023/03/19 08:53:29;;;;;;;;;;;;;;;15.45;54.62;100041.44;5027137;28;20057;-60
2023/03/19 08:56:00;;;;;;;3.13;1.48;;;;;;;15.54;53.95;100039.28;5027774;28;19928;-60
2023/03/19 08:58:28;;;;;;;2.20;1.30;;;;;;;15.59;54.79;100055.88;5029140;28;20049;-60
2023/03/19 09:01:02;;;;;;;1.88;1.50;;;;;;;15.56;53.93;100043.38;5024074;28;20053;-60
2023/03/19 09:03:30;;;;;;;2.95;1.55;;;;;;;15.76;53.28;100044.34;5024417;28;20060;-60
2023/03/19 09:06:00;;;;;;;2.80;1.65;;;;;;;16.09;53.51;100048.81;5026869;28;20045;-60
2023/03/19 09:08:28;;;;;;;3.28;1.50;;;;;;;16.47;52.40;100052.16;5025785;28;20053;-60
2023/03/19 09:10:55;;;;;;;2.58;1.48;;;;;;;16.48;52.08;100057.41;5025536;28;20054;-60
2023/03/19 09:13:23;;;;;;;1.98;1.35;;;;;;;16.72;51.71;100049.94;5025440;28;20491;-61
2023/03/19 09:15:51;;;;;;;2.20;1.35;;;;;;;16.94;51.71;100051.25;5026475;28;21264;-61
2023/03/19 09:18:22;;;;;;;3.63;1.50;;;;;;;17.33;51.00;100054.91;5026849;28;20053;-60
2023/03/19 09:20:50;;;;;;;2.53;1.40;;;;;;;17.56;50.13;100045.72;5025906;28;20062;-60
2023/03/19 09:23:17;;;;;;;4.03;1.60;;;;;;;17.92;49.51;100043.59;5026233;28;20045;-60
2023/03/19 09:25:45;;;;;;;4.82;1.50;;;;;;;18.13;49.05;100046.78;5025513;28;20053;-61
2023/03/19 09:28:12;;;;;;;2.35;1.42;;;;;;;17.80;48.97;100053.00;5027021;28;20056;-60
2023/03/19 09:30:39;;;;;;;2.05;1.50;;;;;;;17.53;49.27;100052.06;5022964;28;20049;-61
2023/03/19 09:33:07;;;;;;;2.65;1.60;;;;;;;17.44;49.32;100061.56;5025907;28;20053;-60
2023/03/19 09:35:38;;;;;;;3.25;2.20;;;;;;;17.36;49.98;100067.44;5027353;28;20052;-60
2023/03/19 09:38:05;;;;;;;3.38;1.95;;;;;;;17.18;50.48;100061.44;5024473;28;20057;-60
2023/03/19 09:40:36;;;;;;;3.67;2.10;;;;;;;17.62;49.92;100067.56;5027663;28;20500;-60
2023/03/19 09:43:21;;;;;;;3.40;2.65;;;;;;;18.01;48.72;100066.69;5026019;28;20060;-61
2023/03/19 09:45:48;;;;;;;3.63;3.00;;;;;;;17.77;49.58;100068.66;5025359;28;20057;-60
2023/03/19 09:48:20;;;;;;;4.75;3.65;;;;;;;17.85;49.69;100067.63;5026206;28;20053;-60
2023/03/19 09:50:50;;;;;;;3.90;3.47;;;;;;;17.92;50.05;100064.13;5023278;28;20065;-60
2023/03/19 09:53:32;;;;;;;4.25;3.60;;;;;;;18.21;48.34;100068.28;5017583;28;20454;-60
2023/03/19 09:58:54;;;;;;;4.70;3.28;;;;;;;20.32;44.14;100065.81;5019772;28;20077;-60
2023/03/19 10:01:26;;;;;;;4.78;3.97;;;;;;;24.08;37.87;100054.09;5027371;28;20057;-61
2023/03/19 10:04:16;;;;;;;3.47;3.17;;;;;;;26.97;32.90;100053.72;5026688;28;20061;-61
2023/03/19 10:06:46;;;;;;;3.50;2.75;;;;;;;30.06;28.21;100046.78;5018785;28;20046;-61
2023/03/19 10:09:36;;;;;;;3.47;3.17;;;;;;;32.01;25.81;100032.84;5026112;28;20056;-61
2023/03/19 10:12:17;;;;;;;4.70;4.10;;;;;;;33.87;23.05;100043.22;5027306;28;20046;-61
2023/03/19 10:15:02;;;;;;;4.95;4.53;;;;;;;32.30;24.04;100035.34;5016004;28;20057;-62
2023/03/19 10:17:34;;;;;;;4.38;3.97;;;;;;;32.82;24.06;100029.03;5024080;28;20452;-61
2023/03/19 10:20:06;;;;;;;4.10;3.80;;;;;;;32.10;23.87;100044.38;5023253;28;20054;-62
2023/03/19 10:22:40;;;;;;;4.57;4.18;;;;;;;30.24;26.11;100046.22;5024795;28;20045;-61
2023/03/19 10:25:12;;;;;;;4.22;3.70;;;;;;;28.63;27.69;100045.97;5020290;28;20045;-61
2023/03/19 10:27:40;;;;;;;3.53;3.03;;;;;;;29.57;27.11;100051.97;5025264;28;20054;-61
2023/03/19 10:30:20;;;;;;;3.25;2.95;;;;;;;29.38;27.67;100050.88;5027204;28;20473;-61
2023/03/19 10:33:01;;;;;;;3.28;2.67;;;;;;;27.89;29.29;100055.13;5025454;28;20064;-60
2023/03/19 10:35:41;;;;;;;3.67;2.92;;;;;;;27.19;29.84;100053.28;5027372;28;20049;-61
2023/03/19 10:38:24;;;;;;;4.18;3.25;;;;;;;27.39;29.74;100045.56;5025410;28;20049;-61
2023/03/19 10:41:05;;;;;;;5.03;4.53;;;;;;;27.87;28.53;100049.84;5028230;28;20065;-61
2023/03/19 10:43:36;;;;;;;4.97;4.50;;;;;;;27.73;28.57;100058.72;5029399;28;20053;-61
2023/03/19 10:46:03;;;;;;;4.28;3.72;;;;;;;32.47;23.60;100043.72;5026354;28;20476;-61
2023/03/19 10:48:32;;;;;;;4.28;3.88;;;;;;;33.13;22.11;100044.16;5028277;28;20053;-61
2023/03/19 10:51:04;;;;;;;4.25;3.85;;;;;;;31.84;22.87;100040.09;5027563;28;20053;-60
2023/03/19 10:53:36;;;;;;;4.43;3.80;;;;;;;29.18;26.31;100053.94;5040424;28;20048;-60
2023/03/19 10:56:16;;;;;;;5.22;3.75;;;;;;;28.30;27.38;100057.41;5028223;28;20076;-60
2023/03/19 10:58:57;;;;;;;4.38;3.55;;;;;;;27.19;29.09;100047.56;5026683;28;20049;-61
2023/03/19 11:01:28;;;;;;;3.50;3.20;;;;;;;27.20;29.57;100049.19;5024010;28;21577;-60
2023/03/19 11:03:58;;;;;;;2.95;2.65;;;;;;;27.05;29.60;100055.19;5028692;28;20041;-61
2023/03/19 11:06:30;;;;;;;3.75;2.40;;;;;;;27.94;28.65;100046.81;5029219;28;20049;-61
2023/03/19 11:09:01;;;;;;;4.22;2.92;;;;;;;32.55;23.89;100045.06;5028852;28;20050;-62
2023/03/19 11:11:42;;;;;;;2.50;1.92;;;;;;;31.96;23.34;100045.75;5026390;28;20046;-61
2023/03/19 11:14:15;;;;;;;2.47;1.25;;;;;;;30.08;25.56;100049.19;5031858;28;20050;-61
2023/03/19 11:16:57;;;;;;;2.50;1.13;;;;;;;27.53;28.24;100055.91;5024053;28;21192;-61
2023/03/19 11:19:26;;;;;;;1.73;1.10;;;;;;;27.36;29.09;100057.06;5028598;28;20052;-62
2023/03/19 11:22:36;;;;;;;1.80;1.10;;;;;;;26.23;31.25;100053.78;5028363;28;20057;-61
2023/03/19 11:25:28;;;;;;;1.58;1.10;;;;;;;24.85;32.42;100058.75;5025031;27;20072;-61
2023/03/19 11:28:03;;;;;;;1.50;1.10;;;;;;;24.05;34.14;100061.44;5022076;28;20053;-61
2023/03/19 11:30:39;;;;;;;1.90;1.15;;;;;;;23.37;34.63;100061.78;5029481;28;20053;-61
2023/03/19 11:33:44;;;;;;;2.13;1.23;;;;;;;22.33;36.92;100066.81;5027881;28;20423;-61
2023/03/19 11:36:16;;;;;;;1.75;1.10;;;;;;;21.64;38.44;100077.19;5032042;28;20050;-61
2023/03/19 11:39:09;;;;;;;;;;;;;;;;;;;;;
2023/03/19 11:42:00;;;;;;;1.85;1.30;;;;;;;21.14;39.00;100076.91;5031086;28;20068;-61
2023/03/19 11:48:03;;;;;;;1.25;1.00;;;;;;;20.78;41.03;100077.50;4875957;29;20435;-61
2023/03/19 11:50:40;;;;;;;2.03;1.38;;;;;;;21.24;39.69;100071.31;4841721;29;20064;-61
2023/03/19 11:53:30;;;;;;;1.67;1.20;;;;;;;21.51;39.35;100061.75;4941533;29;20078;-61
2023/03/19 11:56:24;;;;;;;2.25;1.40;;;;;;;21.98;38.12;100062.69;4992497;28;20409;-61